sensor_id;sensor_type;location;lat;lon;timestamp;temperature;humidity
54576;DHT22;40472;53.486;14.542;2023-03-31T00:00:15;8.00;99.90
54576;DHT22;40472;53.486;14.542;2023-03-31T00:02:41;8.00;99.90
54576;DHT22;40472;53.486;14.542;2023-03-31T00:05:11;8.00;99.90
54576;DHT22;40472;53.486;14.542;2023-03-31T00:07:42;8.00;99.90
54576;DHT22;40472;53.486;14.542;2023-03-31T00:10:08;8.00;99.90
54576;DHT22;40472;53.486;14.542;2023-03-31T00:12:35;8.00;99.90
54576;DHT22;40472;53.486;14.542;2023-03-31T00:15:01;8.10;99.90
54576;DHT22;40472;53.486;14.542;2023-03-31T00:17:27;8.10;99.90
54576;DHT22;40472;53.486;14.542;2023-03-31T00:19:52;8.10;99.90
54576;DHT22;40472;53.486;14.542;2023-03-31T00:22:24;8.10;99.90
54576;DHT22;40472;53.486;14.542;2023-03-31T00:24:52;8.10;99.90
54576;DHT22;40472;53.486;14.542;2023-03-31T00:27:17;8.20;99.90
54576;DHT22;40472;53.486;14.542;2023-03-31T00:29:43;8.20;99.90
54576;DHT22;40472;53.486;14.542;2023-03-31T00:32:10;8.20;99.90
54576;DHT22;40472;53.486;14.542;2023-03-31T00:34:36;8.20;99.90
54576;DHT22;40472;53.486;14.542;2023-03-31T00:37:03;8.30;99.90
54576;DHT22;40472;53.486;14.542;2023-03-31T00:39:28;8.30;99.90
54576;DHT22;40472;53.486;14.542;2023-03-31T00:41:58;8.30;99.90
54576;DHT22;40472;53.486;14.542;2023-03-31T00:44:24;8.30;99.90
54576;DHT22;40472;53.486;14.542;2023-03-31T00:51:56;8.30;99.90
54576;DHT22;40472;53.486;14.542;2023-03-31T00:54:25;8.30;99.90
54576;DHT22;40472;53.486;14.542;2023-03-31T00:56:52;8.30;99.90
54576;DHT22;40472;53.486;14.542;2023-03-31T00:59:24;8.30;99.90
54576;DHT22;40472;53.486;14.542;2023-03-31T01:01:53;8.30;99.90
54576;DHT22;40472;53.486;14.542;2023-03-31T01:04:24;8.30;99.90
54576;DHT22;40472;53.486;14.542;2023-03-31T01:06:58;8.30;99.90
54576;DHT22;40472;53.486;14.542;2023-03-31T01:09:30;8.30;99.90
54576;DHT22;40472;53.486;14.542;2023-03-31T01:12:02;8.30;99.90
54576;DHT22;40472;53.486;14.542;2023-03-31T01:14:30;8.30;99.90
54576;DHT22;40472;53.486;14.542;2023-03-31T01:16:56;8.20;99.90
54576;DHT22;40472;53.486;14.542;2023-03-31T01:19:39;8.30;99.90
54576;DHT22;40472;53.486;14.542;2023-03-31T01:28:13;8.30;99.90
54576;DHT22;40472;53.486;14.542;2023-03-31T01:33:59;8.30;99.90
54576;DHT22;40472;53.486;14.542;2023-03-31T01:47:09;8.30;99.90
54576;DHT22;40472;53.486;14.542;2023-03-31T01:49:45;8.40;99.90
54576;DHT22;40472;53.486;14.542;2023-03-31T01:55:22;8.40;99.90
54576;DHT22;40472;53.486;14.542;2023-03-31T01:58:25;8.40;99.90
54576;DHT22;40472;53.486;14.542;2023-03-31T02:01:00;8.40;99.90
54576;DHT22;40472;53.486;14.542;2023-03-31T02:03:32;8.50;99.90
54576;DHT22;40472;53.486;14.542;2023-03-31T02:06:13;8.50;99.90
54576;DHT22;40472;53.486;14.542;2023-03-31T02:09:08;8.50;99.90
54576;DHT22;40472;53.486;14.542;2023-03-31T02:11:37;8.50;99.90
54576;DHT22;40472;53.486;14.542;2023-03-31T02:14:09;8.50;99.90
54576;DHT22;40472;53.486;14.542;2023-03-31T02:16:37;8.60;99.90
54576;DHT22;40472;53.486;14.542;2023-03-31T02:19:08;8.50;99.90
54576;DHT22;40472;53.486;14.542;2023-03-31T02:21:37;8.60;99.90
54576;DHT22;40472;53.486;14.542;2023-03-31T02:24:07;8.50;99.90
54576;DHT22;40472;53.486;14.542;2023-03-31T02:29:18;8.60;99.90
54576;DHT22;40472;53.486;14.542;2023-03-31T02:32:00;8.60;99.90
54576;DHT22;40472;53.486;14.542;2023-03-31T02:34:28;8.60;99.90
54576;DHT22;40472;53.486;14.542;2023-03-31T02:36:54;8.50;99.90
54576;DHT22;40472;53.486;14.542;2023-03-31T02:39:30;8.50;99.90
54576;DHT22;40472;53.486;14.542;2023-03-31T02:41:57;8.60;99.90
54576;DHT22;40472;53.486;14.542;2023-03-31T02:44:23;8.60;99.90
54576;DHT22;40472;53.486;14.542;2023-03-31T02:46:49;8.60;99.90
54576;DHT22;40472;53.486;14.542;2023-03-31T02:49:16;8.50;99.90
54576;DHT22;40472;53.486;14.542;2023-03-31T03:03:10;8.60;99.90
54576;DHT22;40472;53.486;14.542;2023-03-31T03:11:11;8.60;99.90
54576;DHT22;40472;53.486;14.542;2023-03-31T03:16:27;8.50;99.90
54576;DHT22;40472;53.486;14.542;2023-03-31T03:19:01;8.50;99.90
54576;DHT22;40472;53.486;14.542;2023-03-31T03:21:27;8.50;99.90
54576;DHT22;40472;53.486;14.542;2023-03-31T03:23:53;8.50;99.90
54576;DHT22;40472;53.486;14.542;2023-03-31T03:26:19;8.50;99.90
54576;DHT22;40472;53.486;14.542;2023-03-31T03:28:46;8.50;99.90
54576;DHT22;40472;53.486;14.542;2023-03-31T03:31:13;8.50;99.90
54576;DHT22;40472;53.486;14.542;2023-03-31T03:33:40;8.60;99.90
54576;DHT22;40472;53.486;14.542;2023-03-31T03:36:06;8.50;99.90
54576;DHT22;40472;53.486;14.542;2023-03-31T03:38:32;8.50;99.90
54576;DHT22;40472;53.486;14.542;2023-03-31T03:40:58;8.60;99.90
54576;DHT22;40472;53.486;14.542;2023-03-31T03:43:24;8.60;99.90
54576;DHT22;40472;53.486;14.542;2023-03-31T03:45:50;8.60;99.90
54576;DHT22;40472;53.486;14.542;2023-03-31T03:48:16;8.60;99.90
54576;DHT22;40472;53.486;14.542;2023-03-31T03:50:44;8.60;99.90
54576;DHT22;40472;53.486;14.542;2023-03-31T03:53:11;8.60;99.90
54576;DHT22;40472;53.486;14.542;2023-03-31T03:55:36;8.60;99.90
54576;DHT22;40472;53.486;14.542;2023-03-31T03:58:02;8.60;99.90
54576;DHT22;40472;53.486;14.542;2023-03-31T04:00:28;8.60;99.90
54576;DHT22;40472;53.486;14.542;2023-03-31T04:02:53;8.60;99.90
54576;DHT22;40472;53.486;14.542;2023-03-31T04:05:19;8.70;99.90
54576;DHT22;40472;53.486;14.542;2023-03-31T04:07:45;8.70;99.90
54576;DHT22;40472;53.486;14.542;2023-03-31T04:10:11;8.70;99.90
54576;DHT22;40472;53.486;14.542;2023-03-31T04:12:37;8.60;99.90
54576;DHT22;40472;53.486;14.542;2023-03-31T04:15:04;8.60;99.90
54576;DHT22;40472;53.486;14.542;2023-03-31T04:17:30;8.60;99.90
54576;DHT22;40472;53.486;14.542;2023-03-31T04:20:07;8.60;99.90
54576;DHT22;40472;53.486;14.542;2023-03-31T04:22:36;8.60;99.90
54576;DHT22;40472;53.486;14.542;2023-03-31T04:25:07;8.70;99.90
54576;DHT22;40472;53.486;14.542;2023-03-31T04:27:35;8.70;99.90
54576;DHT22;40472;53.486;14.542;2023-03-31T04:30:00;8.60;99.90
54576;DHT22;40472;53.486;14.542;2023-03-31T04:32:26;8.60;99.90
54576;DHT22;40472;53.486;14.542;2023-03-31T04:34:52;8.70;99.90
54576;DHT22;40472;53.486;14.542;2023-03-31T04:37:28;8.70;99.90
54576;DHT22;40472;53.486;14.542;2023-03-31T04:40:00;8.70;99.90
54576;DHT22;40472;53.486;14.542;2023-03-31T04:42:32;8.70;99.90
54576;DHT22;40472;53.486;14.542;2023-03-31T04:44:58;8.60;99.90
54576;DHT22;40472;53.486;14.542;2023-03-31T04:47:24;8.60;99.90
54576;DHT22;40472;53.486;14.542;2023-03-31T04:49:49;8.60;99.90
54576;DHT22;40472;53.486;14.542;2023-03-31T04:52:15;8.60;99.90
54576;DHT22;40472;53.486;14.542;2023-03-31T04:54:41;8.60;99.90
54576;DHT22;40472;53.486;14.542;2023-03-31T04:57:07;8.60;99.90
54576;DHT22;40472;53.486;14.542;2023-03-31T04:59:32;8.70;99.90
54576;DHT22;40472;53.486;14.542;2023-03-31T05:01:58;8.70;99.90
54576;DHT22;40472;53.486;14.542;2023-03-31T05:04:24;8.70;99.90
54576;DHT22;40472;53.486;14.542;2023-03-31T05:06:50;8.70;99.90
54576;DHT22;40472;53.486;14.542;2023-03-31T05:09:16;8.70;99.90
54576;DHT22;40472;53.486;14.542;2023-03-31T05:11:42;8.60;99.90
54576;DHT22;40472;53.486;14.542;2023-03-31T05:14:07;8.60;99.90
54576;DHT22;40472;53.486;14.542;2023-03-31T05:16:33;8.60;99.90
54576;DHT22;40472;53.486;14.542;2023-03-31T05:18:59;8.50;99.90
54576;DHT22;40472;53.486;14.542;2023-03-31T05:21:25;8.50;99.90
54576;DHT22;40472;53.486;14.542;2023-03-31T05:23:52;8.40;99.90
54576;DHT22;40472;53.486;14.542;2023-03-31T05:26:18;8.40;99.90
54576;DHT22;40472;53.486;14.542;2023-03-31T05:28:43;8.40;99.90
54576;DHT22;40472;53.486;14.542;2023-03-31T05:31:10;8.40;99.90
54576;DHT22;40472;53.486;14.542;2023-03-31T05:33:37;8.40;99.90
54576;DHT22;40472;53.486;14.542;2023-03-31T05:36:11;8.50;99.90
54576;DHT22;40472;53.486;14.542;2023-03-31T05:38:38;8.50;99.90
54576;DHT22;40472;53.486;14.542;2023-03-31T05:41:04;8.60;99.90
54576;DHT22;40472;53.486;14.542;2023-03-31T05:43:30;8.60;99.90
54576;DHT22;40472;53.486;14.542;2023-03-31T05:45:56;8.70;99.90
54576;DHT22;40472;53.486;14.542;2023-03-31T05:48:22;8.80;99.90
54576;DHT22;40472;53.486;14.542;2023-03-31T05:50:48;8.80;99.90
54576;DHT22;40472;53.486;14.542;2023-03-31T05:53:14;8.90;99.90
54576;DHT22;40472;53.486;14.542;2023-03-31T05:55:40;8.90;99.90
54576;DHT22;40472;53.486;14.542;2023-03-31T05:58:05;8.90;99.90
54576;DHT22;40472;53.486;14.542;2023-03-31T06:00:33;9.00;99.90
54576;DHT22;40472;53.486;14.542;2023-03-31T06:03:00;9.00;99.90
54576;DHT22;40472;53.486;14.542;2023-03-31T06:05:26;9.00;99.90
54576;DHT22;40472;53.486;14.542;2023-03-31T06:07:52;9.00;99.90
54576;DHT22;40472;53.486;14.542;2023-03-31T06:10:19;9.00;99.90
54576;DHT22;40472;53.486;14.542;2023-03-31T06:12:45;9.00;99.90
54576;DHT22;40472;53.486;14.542;2023-03-31T06:15:10;9.00;99.90
54576;DHT22;40472;53.486;14.542;2023-03-31T06:17:36;9.00;99.90
54576;DHT22;40472;53.486;14.542;2023-03-31T06:20:02;9.10;99.90
54576;DHT22;40472;53.486;14.542;2023-03-31T06:22:30;9.10;99.90
54576;DHT22;40472;53.486;14.542;2023-03-31T06:24:56;9.20;99.90
54576;DHT22;40472;53.486;14.542;2023-03-31T06:27:22;9.30;99.90
54576;DHT22;40472;53.486;14.542;2023-03-31T06:29:47;9.40;99.90
54576;DHT22;40472;53.486;14.542;2023-03-31T06:32:14;9.60;99.90
54576;DHT22;40472;53.486;14.542;2023-03-31T06:34:40;9.60;99.90
54576;DHT22;40472;53.486;14.542;2023-03-31T06:37:06;9.70;99.90
54576;DHT22;40472;53.486;14.542;2023-03-31T06:39:32;9.80;99.90
54576;DHT22;40472;53.486;14.542;2023-03-31T06:41:57;9.70;99.90
54576;DHT22;40472;53.486;14.542;2023-03-31T06:44:23;9.70;99.90
54576;DHT22;40472;53.486;14.542;2023-03-31T06:46:49;9.70;99.90
54576;DHT22;40472;53.486;14.542;2023-03-31T06:49:15;9.70;99.90
54576;DHT22;40472;53.486;14.542;2023-03-31T06:51:41;9.70;99.90
54576;DHT22;40472;53.486;14.542;2023-03-31T06:54:06;9.80;99.90
54576;DHT22;40472;53.486;14.542;2023-03-31T06:56:33;9.70;99.90
54576;DHT22;40472;53.486;14.542;2023-03-31T06:59:00;9.70;99.90
54576;DHT22;40472;53.486;14.542;2023-03-31T07:01:26;9.70;99.90
54576;DHT22;40472;53.486;14.542;2023-03-31T07:03:52;9.70;99.90
54576;DHT22;40472;53.486;14.542;2023-03-31T07:06:17;9.70;99.90
54576;DHT22;40472;53.486;14.542;2023-03-31T07:08:43;9.70;99.90
54576;DHT22;40472;53.486;14.542;2023-03-31T07:11:09;9.60;99.90
54576;DHT22;40472;53.486;14.542;2023-03-31T07:13:36;9.80;99.90
54576;DHT22;40472;53.486;14.542;2023-03-31T07:16:02;9.90;99.90
54576;DHT22;40472;53.486;14.542;2023-03-31T07:18:29;10.10;99.90
54576;DHT22;40472;53.486;14.542;2023-03-31T07:20:59;10.30;99.90
54576;DHT22;40472;53.486;14.542;2023-03-31T07:23:25;10.30;99.90
54576;DHT22;40472;53.486;14.542;2023-03-31T07:26:08;10.30;99.90
54576;DHT22;40472;53.486;14.542;2023-03-31T07:28:34;10.30;99.90
54576;DHT22;40472;53.486;14.542;2023-03-31T07:31:00;10.30;99.90
54576;DHT22;40472;53.486;14.542;2023-03-31T07:33:25;10.30;99.90
54576;DHT22;40472;53.486;14.542;2023-03-31T07:35:51;10.30;99.90
54576;DHT22;40472;53.486;14.542;2023-03-31T07:38:17;10.30;99.90
54576;DHT22;40472;53.486;14.542;2023-03-31T07:40:43;10.30;99.90
54576;DHT22;40472;53.486;14.542;2023-03-31T07:43:10;10.30;99.90
54576;DHT22;40472;53.486;14.542;2023-03-31T07:45:38;10.30;99.90
54576;DHT22;40472;53.486;14.542;2023-03-31T07:48:04;10.40;99.90
54576;DHT22;40472;53.486;14.542;2023-03-31T07:50:30;10.40;99.90
54576;DHT22;40472;53.486;14.542;2023-03-31T07:52:56;10.50;99.90
54576;DHT22;40472;53.486;14.542;2023-03-31T07:55:22;10.60;99.90
54576;DHT22;40472;53.486;14.542;2023-03-31T07:57:48;10.70;99.90
54576;DHT22;40472;53.486;14.542;2023-03-31T08:00:16;10.80;99.90
54576;DHT22;40472;53.486;14.542;2023-03-31T08:02:42;10.80;99.90
54576;DHT22;40472;53.486;14.542;2023-03-31T08:05:09;10.90;99.90
54576;DHT22;40472;53.486;14.542;2023-03-31T08:07:38;11.00;99.90
54576;DHT22;40472;53.486;14.542;2023-03-31T08:10:06;11.00;99.90
54576;DHT22;40472;53.486;14.542;2023-03-31T08:12:33;11.10;99.90
54576;DHT22;40472;53.486;14.542;2023-03-31T08:14:59;11.20;99.90
54576;DHT22;40472;53.486;14.542;2023-03-31T08:17:25;11.20;99.90
54576;DHT22;40472;53.486;14.542;2023-03-31T08:19:51;11.30;99.90
54576;DHT22;40472;53.486;14.542;2023-03-31T08:22:18;11.40;99.90
54576;DHT22;40472;53.486;14.542;2023-03-31T08:24:45;11.30;99.90
54576;DHT22;40472;53.486;14.542;2023-03-31T08:27:11;11.40;99.90
54576;DHT22;40472;53.486;14.542;2023-03-31T08:29:37;11.40;99.90
54576;DHT22;40472;53.486;14.542;2023-03-31T08:34:42;11.40;99.90
54576;DHT22;40472;53.486;14.542;2023-03-31T08:37:09;11.50;99.90
54576;DHT22;40472;53.486;14.542;2023-03-31T08:39:35;11.70;99.90
54576;DHT22;40472;53.486;14.542;2023-03-31T08:47:38;12.20;99.90
54576;DHT22;40472;53.486;14.542;2023-03-31T08:50:14;12.20;99.90
54576;DHT22;40472;53.486;14.542;2023-03-31T08:55:43;12.20;99.90
54576;DHT22;40472;53.486;14.542;2023-03-31T08:58:22;12.00;99.90
54576;DHT22;40472;53.486;14.542;2023-03-31T09:09:30;12.00;99.90
54576;DHT22;40472;53.486;14.542;2023-03-31T09:15:03;12.40;99.90
54576;DHT22;40472;53.486;14.542;2023-03-31T09:17:33;12.40;99.90
54576;DHT22;40472;53.486;14.542;2023-03-31T09:22:37;12.70;99.90
54576;DHT22;40472;53.486;14.542;2023-03-31T09:25:24;12.70;99.90
54576;DHT22;40472;53.486;14.542;2023-03-31T09:27:53;12.80;99.90
54576;DHT22;40472;53.486;14.542;2023-03-31T09:30:30;12.80;99.90
54576;DHT22;40472;53.486;14.542;2023-03-31T09:33:16;12.80;99.90
54576;DHT22;40472;53.486;14.542;2023-03-31T09:35:42;13.00;99.90
54576;DHT22;40472;53.486;14.542;2023-03-31T09:38:13;13.10;99.90
54576;DHT22;40472;53.486;14.542;2023-03-31T09:40:40;13.20;99.90
54576;DHT22;40472;53.486;14.542;2023-03-31T09:43:14;13.40;99.90
54576;DHT22;40472;53.486;14.542;2023-03-31T09:45:43;13.40;99.90
54576;DHT22;40472;53.486;14.542;2023-03-31T09:48:31;13.40;99.90
54576;DHT22;40472;53.486;14.542;2023-03-31T09:51:06;13.40;99.90
54576;DHT22;40472;53.486;14.542;2023-03-31T09:53:55;13.00;99.90
54576;DHT22;40472;53.486;14.542;2023-03-31T09:59:30;12.90;99.90
54576;DHT22;40472;53.486;14.542;2023-03-31T10:04:34;12.90;99.90
54576;DHT22;40472;53.486;14.542;2023-03-31T10:07:03;12.80;99.90
54576;DHT22;40472;53.486;14.542;2023-03-31T10:09:30;12.90;99.90
54576;DHT22;40472;53.486;14.542;2023-03-31T10:12:15;13.00;99.90
54576;DHT22;40472;53.486;14.542;2023-03-31T10:14:49;13.00;99.90
54576;DHT22;40472;53.486;14.542;2023-03-31T10:17:18;13.20;99.90
54576;DHT22;40472;53.486;14.542;2023-03-31T10:19:59;13.10;99.90
54576;DHT22;40472;53.486;14.542;2023-03-31T10:22:30;13.20;99.90
54576;DHT22;40472;53.486;14.542;2023-03-31T10:25:19;13.20;99.90
54576;DHT22;40472;53.486;14.542;2023-03-31T10:27:52;13.40;99.90
54576;DHT22;40472;53.486;14.542;2023-03-31T10:30:26;13.60;99.90
54576;DHT22;40472;53.486;14.542;2023-03-31T10:32:53;13.80;99.90
54576;DHT22;40472;53.486;14.542;2023-03-31T10:35:34;14.00;99.90
54576;DHT22;40472;53.486;14.542;2023-03-31T10:38:11;14.20;99.90
54576;DHT22;40472;53.486;14.542;2023-03-31T10:40:40;14.20;99.90
54576;DHT22;40472;53.486;14.542;2023-03-31T10:45:56;14.40;99.90
54576;DHT22;40472;53.486;14.542;2023-03-31T10:48:34;14.30;99.90
54576;DHT22;40472;53.486;14.542;2023-03-31T10:51:16;14.30;99.90
54576;DHT22;40472;53.486;14.542;2023-03-31T10:53:51;13.90;99.90
54576;DHT22;40472;53.486;14.542;2023-03-31T10:56:37;13.90;99.90
54576;DHT22;40472;53.486;14.542;2023-03-31T11:05:27;13.70;99.90
54576;DHT22;40472;53.486;14.542;2023-03-31T11:08:07;13.70;99.90
54576;DHT22;40472;53.486;14.542;2023-03-31T11:13:19;13.80;99.90
54576;DHT22;40472;53.486;14.542;2023-03-31T11:21:30;14.10;99.90
54576;DHT22;40472;53.486;14.542;2023-03-31T11:29:47;14.50;99.90
54576;DHT22;40472;53.486;14.542;2023-03-31T11:35:40;14.70;99.90
54576;DHT22;40472;53.486;14.542;2023-03-31T11:45:54;14.40;99.90
54576;DHT22;40472;53.486;14.542;2023-03-31T11:51:18;14.70;99.90
54576;DHT22;40472;53.486;14.542;2023-03-31T11:53:46;14.90;99.90
54576;DHT22;40472;53.486;14.542;2023-03-31T11:56:14;15.20;99.90
54576;DHT22;40472;53.486;14.542;2023-03-31T11:58:41;15.30;99.90
54576;DHT22;40472;53.486;14.542;2023-03-31T12:06:44;15.10;99.90
54576;DHT22;40472;53.486;14.542;2023-03-31T12:09:39;15.10;99.90
54576;DHT22;40472;53.486;14.542;2023-03-31T12:17:32;15.30;99.90
54576;DHT22;40472;53.486;14.542;2023-03-31T12:20:04;15.20;99.90
54576;DHT22;40472;53.486;14.542;2023-03-31T12:22:45;14.80;99.90
54576;DHT22;40472;53.486;14.542;2023-03-31T12:25:19;15.10;99.90
54576;DHT22;40472;53.486;14.542;2023-03-31T12:27:51;15.30;99.90
54576;DHT22;40472;53.486;14.542;2023-03-31T12:30:32;15.20;99.90
54576;DHT22;40472;53.486;14.542;2023-03-31T12:35:46;14.90;99.90
54576;DHT22;40472;53.486;14.542;2023-03-31T12:51:57;15.20;99.90
54576;DHT22;40472;53.486;14.542;2023-03-31T12:59:40;15.30;99.90
54576;DHT22;40472;53.486;14.542;2023-03-31T13:04:42;15.10;99.90
54576;DHT22;40472;53.486;14.542;2023-03-31T13:10:00;15.00;99.90
54576;DHT22;40472;53.486;14.542;2023-03-31T13:13:21;14.90;99.90
54576;DHT22;40472;53.486;14.542;2023-03-31T13:15:54;15.00;99.90
54576;DHT22;40472;53.486;14.542;2023-03-31T13:18:21;14.70;99.90
54576;DHT22;40472;53.486;14.542;2023-03-31T13:20:58;14.70;99.90
54576;DHT22;40472;53.486;14.542;2023-03-31T13:23:25;14.80;99.90
54576;DHT22;40472;53.486;14.542;2023-03-31T13:25:52;15.10;99.90
54576;DHT22;40472;53.486;14.542;2023-03-31T13:31:00;15.00;99.90
54576;DHT22;40472;53.486;14.542;2023-03-31T14:03:37;11.50;99.90
54576;DHT22;40472;53.486;14.542;2023-03-31T14:06:38;11.20;99.90
54576;DHT22;40472;53.486;14.542;2023-03-31T14:09:48;11.20;99.90
54576;DHT22;40472;53.486;14.542;2023-03-31T14:11:57;11.30;99.90
54576;DHT22;40472;53.486;14.542;2023-03-31T14:14:23;11.30;99.90
54576;DHT22;40472;53.486;14.542;2023-03-31T14:17:00;11.30;99.90
54576;DHT22;40472;53.486;14.542;2023-03-31T14:24:30;11.30;99.90
54576;DHT22;40472;53.486;14.542;2023-03-31T14:32:25;11.40;99.90
54576;DHT22;40472;53.486;14.542;2023-03-31T14:37:42;11.40;99.90
54576;DHT22;40472;53.486;14.542;2023-03-31T14:40:13;11.40;99.90
54576;DHT22;40472;53.486;14.542;2023-03-31T14:42:41;11.50;99.90
54576;DHT22;40472;53.486;14.542;2023-03-31T14:45:34;11.60;99.90
54576;DHT22;40472;53.486;14.542;2023-03-31T14:48:10;11.70;99.90
54576;DHT22;40472;53.486;14.542;2023-03-31T14:50:45;11.80;99.90
54576;DHT22;40472;53.486;14.542;2023-03-31T14:53:18;11.90;99.90
54576;DHT22;40472;53.486;14.542;2023-03-31T14:55:47;12.00;99.90
54576;DHT22;40472;53.486;14.542;2023-03-31T14:58:28;12.00;99.90
54576;DHT22;40472;53.486;14.542;2023-03-31T15:00:56;12.20;99.90
54576;DHT22;40472;53.486;14.542;2023-03-31T15:03:24;12.30;99.90
54576;DHT22;40472;53.486;14.542;2023-03-31T15:05:56;12.60;99.90
54576;DHT22;40472;53.486;14.542;2023-03-31T15:08:23;12.70;99.90
54576;DHT22;40472;53.486;14.542;2023-03-31T15:10:57;12.60;99.90
54576;DHT22;40472;53.486;14.542;2023-03-31T15:13:35;12.60;99.90
54576;DHT22;40472;53.486;14.542;2023-03-31T15:18:46;12.40;99.90
54576;DHT22;40472;53.486;14.542;2023-03-31T15:21:23;12.40;99.90
54576;DHT22;40472;53.486;14.542;2023-03-31T15:23:57;12.40;99.90
54576;DHT22;40472;53.486;14.542;2023-03-31T15:34:36;12.10;99.90
54576;DHT22;40472;53.486;14.542;2023-03-31T15:37:02;11.60;99.90
54576;DHT22;40472;53.486;14.542;2023-03-31T15:39:30;11.50;99.90
54576;DHT22;40472;53.486;14.542;2023-03-31T15:41:59;11.30;99.90
54576;DHT22;40472;53.486;14.542;2023-03-31T15:47:18;11.30;99.90
54576;DHT22;40472;53.486;14.542;2023-03-31T15:52:25;11.20;99.90
54576;DHT22;40472;53.486;14.542;2023-03-31T15:54:52;11.10;99.90
54576;DHT22;40472;53.486;14.542;2023-03-31T15:57:17;11.10;99.90
54576;DHT22;40472;53.486;14.542;2023-03-31T15:59:51;11.30;99.90
54576;DHT22;40472;53.486;14.542;2023-03-31T16:02:26;11.40;99.90
54576;DHT22;40472;53.486;14.542;2023-03-31T16:04:57;11.50;99.90
54576;DHT22;40472;53.486;14.542;2023-03-31T16:07:29;11.40;99.90
54576;DHT22;40472;53.486;14.542;2023-03-31T16:10:18;11.30;99.90
54576;DHT22;40472;53.486;14.542;2023-03-31T16:12:51;11.30;99.90
54576;DHT22;40472;53.486;14.542;2023-03-31T16:15:27;11.20;99.90
54576;DHT22;40472;53.486;14.542;2023-03-31T16:18:07;11.20;99.90
54576;DHT22;40472;53.486;14.542;2023-03-31T16:20:37;11.40;99.90
54576;DHT22;40472;53.486;14.542;2023-03-31T16:23:26;11.30;99.90
54576;DHT22;40472;53.486;14.542;2023-03-31T16:25:52;11.30;99.90
54576;DHT22;40472;53.486;14.542;2023-03-31T16:28:21;11.40;99.90
54576;DHT22;40472;53.486;14.542;2023-03-31T16:30:48;11.30;99.90
54576;DHT22;40472;53.486;14.542;2023-03-31T16:33:18;11.30;99.90
54576;DHT22;40472;53.486;14.542;2023-03-31T16:35:46;11.20;99.90
54576;DHT22;40472;53.486;14.542;2023-03-31T16:38:18;11.20;99.90
54576;DHT22;40472;53.486;14.542;2023-03-31T16:40:46;11.20;99.90
54576;DHT22;40472;53.486;14.542;2023-03-31T16:43:16;11.20;99.90
54576;DHT22;40472;53.486;14.542;2023-03-31T16:45:44;11.20;99.90
54576;DHT22;40472;53.486;14.542;2023-03-31T16:48:11;11.10;99.90
54576;DHT22;40472;53.486;14.542;2023-03-31T16:50:37;11.00;99.90
54576;DHT22;40472;53.486;14.542;2023-03-31T16:53:03;11.00;99.90
54576;DHT22;40472;53.486;14.542;2023-03-31T16:55:29;10.90;99.90
54576;DHT22;40472;53.486;14.542;2023-03-31T16:57:58;10.70;99.90
54576;DHT22;40472;53.486;14.542;2023-03-31T17:00:29;10.60;99.90
54576;DHT22;40472;53.486;14.542;2023-03-31T17:02:56;10.50;99.90
54576;DHT22;40472;53.486;14.542;2023-03-31T17:05:22;10.40;99.90
54576;DHT22;40472;53.486;14.542;2023-03-31T17:07:48;10.40;99.90
54576;DHT22;40472;53.486;14.542;2023-03-31T17:10:14;10.30;99.90
54576;DHT22;40472;53.486;14.542;2023-03-31T17:12:40;10.30;99.90
54576;DHT22;40472;53.486;14.542;2023-03-31T17:15:07;10.20;99.90
54576;DHT22;40472;53.486;14.542;2023-03-31T17:17:33;10.20;99.90
54576;DHT22;40472;53.486;14.542;2023-03-31T17:19:59;10.10;99.90
54576;DHT22;40472;53.486;14.542;2023-03-31T17:22:29;10.10;99.90
54576;DHT22;40472;53.486;14.542;2023-03-31T17:24:55;10.10;99.90
54576;DHT22;40472;53.486;14.542;2023-03-31T17:27:27;10.10;99.90
54576;DHT22;40472;53.486;14.542;2023-03-31T17:29:54;10.10;99.90
54576;DHT22;40472;53.486;14.542;2023-03-31T17:32:20;10.10;99.90
54576;DHT22;40472;53.486;14.542;2023-03-31T17:34:47;10.20;99.90
54576;DHT22;40472;53.486;14.542;2023-03-31T17:37:14;10.20;99.90
54576;DHT22;40472;53.486;14.542;2023-03-31T17:39:41;10.30;99.90
54576;DHT22;40472;53.486;14.542;2023-03-31T17:42:09;10.30;99.90
54576;DHT22;40472;53.486;14.542;2023-03-31T17:44:36;10.30;99.90
54576;DHT22;40472;53.486;14.542;2023-03-31T17:47:02;10.30;99.90
54576;DHT22;40472;53.486;14.542;2023-03-31T17:49:28;10.20;99.90
54576;DHT22;40472;53.486;14.542;2023-03-31T17:51:54;10.20;99.90
54576;DHT22;40472;53.486;14.542;2023-03-31T17:54:20;10.20;99.90
54576;DHT22;40472;53.486;14.542;2023-03-31T17:56:47;10.20;99.90
54576;DHT22;40472;53.486;14.542;2023-03-31T17:59:16;10.20;99.90
54576;DHT22;40472;53.486;14.542;2023-03-31T18:01:43;10.20;99.90
54576;DHT22;40472;53.486;14.542;2023-03-31T18:04:09;10.10;99.90
54576;DHT22;40472;53.486;14.542;2023-03-31T18:06:36;10.10;99.90
54576;DHT22;40472;53.486;14.542;2023-03-31T18:09:02;10.10;99.90
54576;DHT22;40472;53.486;14.542;2023-03-31T18:11:30;10.10;99.90
54576;DHT22;40472;53.486;14.542;2023-03-31T18:13:56;10.00;99.90
54576;DHT22;40472;53.486;14.542;2023-03-31T18:16:24;10.10;99.90
54576;DHT22;40472;53.486;14.542;2023-03-31T18:18:50;10.10;99.90
54576;DHT22;40472;53.486;14.542;2023-03-31T18:21:16;10.10;99.90
54576;DHT22;40472;53.486;14.542;2023-03-31T18:23:42;10.10;99.90
54576;DHT22;40472;53.486;14.542;2023-03-31T18:26:10;10.00;99.90
54576;DHT22;40472;53.486;14.542;2023-03-31T18:28:37;10.00;99.90
54576;DHT22;40472;53.486;14.542;2023-03-31T18:31:06;9.90;99.90
54576;DHT22;40472;53.486;14.542;2023-03-31T18:33:32;10.00;99.90
54576;DHT22;40472;53.486;14.542;2023-03-31T18:35:59;10.00;99.90
54576;DHT22;40472;53.486;14.542;2023-03-31T18:38:26;10.00;99.90
54576;DHT22;40472;53.486;14.542;2023-03-31T18:40:53;10.00;99.90
54576;DHT22;40472;53.486;14.542;2023-03-31T18:43:19;10.00;99.90
54576;DHT22;40472;53.486;14.542;2023-03-31T18:45:53;10.00;99.90
54576;DHT22;40472;53.486;14.542;2023-03-31T18:48:21;10.00;99.90
54576;DHT22;40472;53.486;14.542;2023-03-31T18:50:48;10.00;99.90
54576;DHT22;40472;53.486;14.542;2023-03-31T18:53:16;10.00;99.90
54576;DHT22;40472;53.486;14.542;2023-03-31T18:55:54;9.90;99.90
54576;DHT22;40472;53.486;14.542;2023-03-31T18:58:21;9.90;99.90
54576;DHT22;40472;53.486;14.542;2023-03-31T19:00:47;9.80;99.90
54576;DHT22;40472;53.486;14.542;2023-03-31T19:03:13;9.70;99.90
54576;DHT22;40472;53.486;14.542;2023-03-31T19:05:39;9.60;99.90
54576;DHT22;40472;53.486;14.542;2023-03-31T19:08:06;9.60;99.90
54576;DHT22;40472;53.486;14.542;2023-03-31T19:10:32;9.60;99.90
54576;DHT22;40472;53.486;14.542;2023-03-31T19:12:58;9.60;99.90
54576;DHT22;40472;53.486;14.542;2023-03-31T19:15:24;9.70;99.90